createdAt,value
2018-07-13T00:02:04.138Z,74.10
2018-07-13T00:04:31.781Z,74.40
2018-07-13T00:06:59.426Z,74.60
2018-07-13T00:09:27.017Z,74.90
2018-07-13T00:11:54.677Z,75.20
2018-07-13T00:14:23.380Z,74.60
2018-07-13T00:16:52.334Z,74.70
2018-07-13T00:19:20.687Z,74.30
2018-07-13T00:21:48.293Z,73.80
2018-07-13T00:24:15.939Z,74.40
2018-07-13T00:26:43.681Z,74.00
2018-07-13T00:29:11.439Z,74.30
2018-07-13T00:31:40.084Z,74.70
2018-07-13T00:34:07.785Z,74.80
2018-07-13T00:36:35.517Z,75.20
2018-07-13T00:39:05.176Z,75.30
2018-07-13T00:41:33.069Z,75.50
2018-07-13T00:44:00.716Z,75.40
2018-07-13T00:46:28.415Z,75.50
2018-07-13T00:48:56.051Z,75.30
2018-07-13T00:51:23.667Z,74.90
2018-07-13T00:53:51.298Z,75.00
2018-07-13T00:56:18.957Z,74.40
2018-07-13T00:58:46.581Z,75.00
2018-07-13T01:01:14.251Z,74.20
2018-07-13T01:03:41.913Z,74.20
2018-07-13T01:06:09.560Z,74.10
2018-07-13T01:08:37.228Z,74.20
2018-07-13T01:11:04.921Z,74.50
2018-07-13T01:13:32.621Z,75.00
2018-07-13T01:16:00.224Z,75.20
2018-07-13T01:18:27.872Z,75.50
2018-07-13T01:20:55.533Z,75.50
2018-07-13T01:23:23.196Z,74.40
2018-07-13T01:25:50.823Z,74.80
2018-07-13T01:28:18.430Z,74.30
2018-07-13T01:30:46.102Z,74.20
2018-07-13T01:33:13.806Z,73.90
2018-07-13T01:35:41.467Z,74.70
2018-07-13T01:38:09.152Z,74.80
2018-07-13T01:40:36.808Z,74.80
2018-07-13T01:43:04.456Z,75.10
2018-07-13T01:45:32.110Z,75.50
2018-07-13T01:50:27.216Z,75.10
2018-07-13T01:52:54.812Z,75.30
2018-07-13T01:55:22.438Z,74.80
2018-07-13T01:57:50.073Z,74.60
2018-07-13T02:00:17.699Z,75.00
2018-07-13T02:02:45.324Z,74.80
2018-07-13T02:05:12.968Z,75.10
2018-07-13T02:07:40.553Z,75.50
2018-07-13T02:10:08.174Z,76.20
2018-07-13T02:12:35.853Z,75.70
2018-07-13T02:15:03.699Z,75.60
2018-07-13T02:17:31.348Z,75.70
2018-07-13T02:19:58.991Z,75.60
2018-07-13T02:22:26.584Z,75.20
2018-07-13T02:24:54.222Z,74.90
2018-07-13T02:27:21.869Z,75.00
2018-07-13T02:29:49.493Z,75.30
2018-07-13T02:32:17.106Z,75.00
2018-07-13T02:34:44.790Z,75.20
2018-07-13T02:37:12.450Z,75.20
2018-07-13T02:39:40.098Z,75.40
2018-07-13T02:42:07.840Z,75.60
2018-07-13T02:44:35.461Z,75.30
2018-07-13T02:47:03.127Z,75.60
2018-07-13T02:49:30.783Z,75.40
2018-07-13T02:51:58.461Z,75.20
2018-07-13T02:54:26.080Z,75.00
2018-07-13T02:56:54.365Z,75.20
2018-07-13T02:59:22.008Z,75.00
2018-07-13T03:01:49.638Z,74.60
2018-07-13T03:06:44.759Z,75.40
2018-07-13T03:09:12.926Z,75.40
2018-07-13T03:11:47.477Z,75.70
2018-07-13T03:14:15.138Z,75.30
2018-07-13T03:16:42.787Z,74.40
2018-07-13T03:19:10.462Z,74.20
2018-07-13T03:21:38.069Z,74.10
2018-07-13T03:24:05.659Z,74.20
2018-07-13T03:26:33.318Z,74.70
2018-07-13T03:29:00.956Z,74.40
2018-07-13T03:31:28.563Z,74.80
2018-07-13T03:33:56.207Z,75.20
2018-07-13T03:36:23.856Z,75.10
2018-07-13T03:38:51.488Z,75.00
2018-07-13T03:41:19.159Z,75.10
2018-07-13T03:43:46.781Z,75.20
2018-07-13T03:46:14.392Z,75.50
2018-07-13T03:48:42.063Z,75.30
2018-07-13T03:51:09.731Z,75.20
2018-07-13T03:53:37.402Z,75.60
2018-07-13T03:56:05.252Z,75.30
2018-07-13T03:58:33.178Z,75.40
2018-07-13T04:01:00.801Z,75.00
2018-07-13T04:03:28.444Z,74.90
2018-07-13T04:05:56.125Z,74.90
2018-07-13T04:08:23.806Z,74.80
2018-07-13T04:10:51.512Z,75.30
2018-07-13T04:13:19.086Z,75.30
2018-07-13T04:15:46.743Z,75.50
2018-07-13T04:18:20.360Z,75.80
2018-07-13T04:20:48.577Z,76.20
2018-07-13T04:23:16.359Z,76.40
2018-07-13T04:25:52.213Z,76.60
2018-07-13T04:28:20.800Z,76.20
2018-07-13T04:30:49.004Z,76.40
2018-07-13T04:35:44.288Z,76.20
2018-07-13T04:38:12.104Z,76.20
2018-07-13T04:40:39.804Z,76.20
2018-07-13T04:43:07.703Z,76.30
2018-07-13T04:45:35.435Z,76.50
2018-07-13T04:48:03.428Z,76.60
2018-07-13T04:50:31.176Z,77.00
2018-07-13T04:52:59.539Z,77.00
2018-07-13T04:55:27.319Z,77.00
2018-07-13T04:57:55.100Z,77.30
2018-07-13T05:00:22.888Z,77.20
2018-07-13T05:02:51.141Z,77.20
2018-07-13T05:05:19.098Z,77.50
2018-07-13T05:07:46.859Z,77.70
2018-07-13T05:10:14.569Z,77.60
2018-07-13T05:12:42.271Z,77.50
2018-07-13T05:15:09.955Z,77.30
2018-07-13T05:17:37.618Z,77.10
2018-07-13T05:20:05.732Z,77.50
2018-07-13T05:22:34.304Z,77.30
2018-07-13T05:25:02.056Z,77.40
2018-07-13T05:27:30.300Z,77.40
2018-07-13T05:29:58.651Z,77.30
2018-07-13T05:32:26.439Z,77.30
2018-07-13T05:34:54.598Z,76.00
2018-07-13T05:37:22.418Z,76.10
2018-07-13T05:39:50.270Z,76.20
2018-07-13T05:42:18.090Z,75.70
2018-07-13T05:44:45.871Z,75.50
2018-07-13T05:47:13.608Z,74.40
2018-07-13T05:49:41.348Z,74.10
2018-07-13T05:52:09.092Z,73.80
2018-07-13T05:54:36.923Z,74.00
2018-07-13T05:57:04.646Z,74.60
2018-07-13T05:59:32.392Z,74.90
2018-07-13T06:04:27.662Z,74.20
2018-07-13T06:06:55.406Z,74.60
2018-07-13T06:09:24.108Z,74.90
2018-07-13T06:11:51.940Z,74.90
2018-07-13T06:14:19.567Z,75.00
2018-07-13T06:16:47.216Z,74.60
2018-07-13T06:19:14.915Z,72.60
2018-07-13T06:21:42.613Z,72.80
2018-07-13T06:24:10.288Z,71.70
2018-07-13T06:26:37.943Z,71.80
2018-07-13T06:29:05.639Z,72.20
2018-07-13T06:31:33.431Z,72.20
2018-07-13T06:34:01.114Z,72.60
2018-07-13T06:36:28.876Z,72.50
2018-07-13T06:38:56.639Z,72.20
2018-07-13T06:41:30.294Z,71.60
2018-07-13T06:43:58.123Z,71.50
2018-07-13T06:46:25.892Z,70.70
2018-07-13T06:48:53.628Z,70.50
2018-07-13T06:51:21.311Z,70.90
2018-07-13T06:53:49.053Z,70.60
2018-07-13T06:56:16.716Z,70.40
2018-07-13T06:58:55.496Z,70.20
2018-07-13T07:01:23.302Z,69.90
2018-07-13T07:04:25.702Z,69.70
2018-07-13T07:06:54.075Z,69.40
2018-07-13T07:09:22.047Z,69.40
2018-07-13T07:12:57.943Z,69.00
2018-07-13T07:15:25.646Z,68.40
2018-07-13T07:17:54.284Z,69.20
2018-07-13T07:20:22.090Z,68.50
2018-07-13T07:22:49.827Z,68.10
2018-07-13T07:25:19.018Z,68.00
2018-07-13T07:27:46.746Z,67.80
2018-07-13T07:30:14.509Z,66.50
2018-07-13T07:32:42.602Z,66.20
2018-07-13T07:35:10.693Z,66.10
2018-07-13T07:37:38.441Z,65.80
2018-07-13T07:40:06.351Z,66.50
2018-07-13T07:42:34.207Z,66.20
2018-07-13T07:45:02.217Z,65.60
2018-07-13T07:47:29.904Z,65.10
2018-07-13T07:49:58.335Z,64.40
2018-07-13T07:52:26.045Z,64.00
2018-07-13T07:54:53.793Z,65.50
2018-07-13T07:57:21.482Z,64.70
2018-07-13T07:59:49.198Z,64.40
2018-07-13T08:02:16.933Z,63.90
2018-07-13T08:04:44.608Z,62.00
2018-07-13T08:07:12.658Z,61.50
2018-07-13T08:09:39.931Z,59.90
2018-07-13T08:12:07.697Z,60.10
2018-07-13T08:14:35.398Z,60.00
2018-07-13T08:17:03.189Z,60.10
2018-07-13T08:19:30.830Z,60.20
2018-07-13T08:22:05.885Z,59.50
2018-07-13T08:24:33.685Z,59.40
2018-07-13T08:27:03.471Z,59.30
2018-07-13T08:29:34.476Z,58.80
2018-07-13T08:32:02.454Z,56.00
2018-07-13T08:34:30.067Z,55.10
2018-07-13T08:36:57.714Z,55.80
2018-07-13T08:39:25.392Z,55.50
2018-07-13T08:41:53.042Z,56.90
2018-07-13T08:44:20.794Z,57.70
2018-07-13T08:46:48.523Z,58.00
2018-07-13T08:49:17.450Z,57.50
2018-07-13T08:51:45.543Z,56.50
2018-07-13T08:54:13.439Z,56.60
2018-07-13T08:56:41.179Z,57.10
2018-07-13T08:59:08.941Z,56.70
2018-07-13T09:01:36.733Z,55.80
2018-07-13T09:04:04.452Z,56.30
2018-07-13T09:06:32.184Z,55.70
2018-07-13T09:08:59.859Z,56.30
2018-07-13T09:11:27.614Z,55.00
2018-07-13T09:13:55.331Z,56.00
2018-07-13T09:16:23.007Z,56.50
2018-07-13T09:18:50.722Z,55.90
2018-07-13T09:21:18.353Z,56.40
2018-07-13T09:23:45.996Z,54.70
2018-07-13T09:26:13.708Z,52.20
2018-07-13T09:28:41.361Z,54.20
2018-07-13T09:31:09.067Z,54.50
2018-07-13T09:33:36.758Z,54.50
2018-07-13T09:36:04.452Z,53.70
2018-07-13T09:38:32.238Z,53.60
2018-07-13T09:40:59.937Z,53.40
2018-07-13T09:43:27.706Z,53.90
2018-07-13T09:45:55.450Z,53.10
2018-07-13T09:48:23.170Z,53.70
2018-07-13T09:50:50.821Z,53.50
2018-07-13T09:53:18.580Z,52.50
2018-07-13T09:55:46.257Z,52.60
2018-07-13T09:58:13.984Z,52.20
2018-07-13T10:00:50.380Z,52.00
2018-07-13T10:03:38.672Z,49.60
2018-07-13T10:06:06.441Z,49.40
2018-07-13T10:08:34.608Z,50.70
2018-07-13T10:11:02.351Z,49.60
2018-07-13T10:13:30.099Z,49.40
2018-07-13T10:15:57.835Z,49.90
2018-07-13T10:18:25.544Z,50.50
2018-07-13T10:23:21.429Z,49.70
2018-07-13T10:25:51.464Z,46.90
2018-07-13T10:28:19.184Z,47.70
2018-07-13T10:30:46.986Z,46.20
2018-07-13T10:33:15.956Z,47.30
2018-07-13T10:35:43.715Z,45.40
2018-07-13T10:38:11.480Z,46.00
2018-07-13T10:40:39.088Z,46.70
2018-07-13T10:43:06.772Z,47.70
2018-07-13T10:45:34.683Z,46.20
2018-07-13T10:48:02.356Z,45.20
2018-07-13T10:50:29.971Z,45.00
2018-07-13T10:52:58.314Z,42.90
2018-07-13T10:55:26.924Z,43.60
2018-07-13T10:57:54.585Z,43.20
2018-07-13T11:00:23.221Z,44.60
2018-07-13T11:02:53.112Z,44.20
2018-07-13T11:05:21.191Z,44.00
2018-07-13T11:07:49.103Z,44.60
2018-07-13T11:10:16.951Z,43.80
2018-07-13T11:12:44.993Z,44.20
2018-07-13T11:15:12.681Z,44.30
2018-07-13T11:17:40.347Z,43.80
2018-07-13T11:20:07.973Z,44.90
2018-07-13T11:22:42.341Z,44.10
2018-07-13T11:25:10.013Z,39.50
2018-07-13T11:27:38.549Z,41.30
2018-07-13T11:30:09.679Z,42.60
2018-07-13T11:32:37.815Z,39.50
2018-07-13T11:35:05.648Z,42.00
2018-07-13T11:37:33.449Z,41.20
2018-07-13T11:40:01.162Z,40.20
2018-07-13T11:42:28.863Z,38.00
2018-07-13T11:44:57.512Z,33.20
2018-07-13T11:47:25.208Z,34.80
2018-07-13T11:49:52.854Z,34.00
2018-07-13T11:52:20.865Z,29.80
2018-07-13T11:54:48.547Z,27.20
2018-07-13T11:57:16.172Z,24.70
2018-07-13T11:59:43.777Z,23.80
2018-07-13T12:02:11.451Z,23.40
2018-07-13T12:04:39.068Z,22.60
2018-07-13T12:07:06.713Z,19.70
2018-07-13T12:09:34.364Z,20.20
2018-07-13T12:12:01.963Z,19.50
2018-07-13T12:14:29.685Z,20.80
2018-07-13T12:16:57.236Z,20.70
2018-07-13T12:19:24.820Z,21.10
2018-07-13T12:21:52.471Z,21.70
2018-07-13T12:24:20.034Z,20.80
2018-07-13T12:26:48.927Z,20.00
2018-07-13T12:29:16.580Z,19.50
2018-07-13T12:34:11.851Z,19.10
2018-07-13T12:36:39.591Z,18.80
2018-07-13T12:39:07.283Z,20.20
2018-07-13T12:41:35.109Z,23.00
2018-07-13T12:44:02.852Z,25.20
2018-07-13T12:46:37.497Z,24.30
2018-07-13T12:49:07.124Z,22.10
2018-07-13T12:51:34.885Z,23.40
2018-07-13T12:54:02.725Z,23.90
2018-07-13T12:56:30.478Z,23.60
2018-07-13T12:58:59.431Z,26.10
2018-07-13T13:01:28.151Z,26.90
2018-07-13T13:03:55.811Z,28.50
2018-07-13T13:06:25.008Z,30.10
2018-07-13T13:08:53.367Z,31.20
2018-07-13T13:11:21.040Z,34.60
2018-07-13T13:13:49.675Z,35.70
2018-07-13T13:16:17.230Z,34.70
2018-07-13T13:18:44.847Z,36.40
2018-07-13T13:21:12.468Z,32.90
2018-07-13T13:23:40.681Z,30.70
2018-07-13T13:26:08.303Z,28.70
2018-07-13T13:28:35.888Z,25.20
2018-07-13T13:31:04.508Z,24.60
2018-07-13T13:33:32.117Z,24.80
2018-07-13T13:36:00.336Z,24.40
2018-07-13T13:38:27.948Z,25.50
2018-07-13T13:40:55.592Z,30.30
2018-07-13T13:43:23.175Z,29.80
2018-07-13T13:45:51.286Z,32.60
2018-07-13T13:48:18.887Z,34.80
2018-07-13T13:50:46.519Z,35.00
2018-07-13T13:53:15.413Z,36.10
2018-07-13T13:55:43.025Z,37.90
2018-07-13T13:58:12.176Z,36.80
2018-07-13T14:00:39.769Z,38.20
2018-07-13T14:03:07.464Z,40.90
2018-07-13T14:05:35.212Z,38.60
2018-07-13T14:08:02.912Z,40.50
2018-07-13T14:10:30.553Z,40.60
2018-07-13T14:12:58.237Z,41.10
2018-07-13T14:15:26.536Z,38.80
2018-07-13T14:17:54.167Z,39.80
2018-07-13T14:20:21.834Z,39.40
2018-07-13T14:22:49.508Z,39.60
2018-07-13T14:25:17.145Z,42.00
2018-07-13T14:27:44.756Z,36.80
2018-07-13T14:30:12.421Z,35.80
2018-07-13T14:32:40.038Z,38.00
2018-07-13T14:35:07.701Z,37.20
2018-07-13T14:37:36.160Z,36.20
2018-07-13T14:40:03.760Z,35.10
2018-07-13T14:44:59.142Z,38.80
2018-07-13T14:47:26.738Z,40.30
2018-07-13T14:49:54.408Z,41.60
2018-07-13T14:52:22.083Z,40.70
2018-07-13T14:54:49.695Z,41.40
2018-07-13T14:57:17.383Z,42.00
2018-07-13T14:59:44.980Z,40.80
2018-07-13T15:02:12.620Z,39.90
2018-07-13T15:04:40.374Z,38.40
2018-07-13T15:09:35.612Z,37.90
2018-07-13T15:12:03.932Z,39.00
2018-07-13T15:14:31.547Z,36.30
2018-07-13T15:17:00.962Z,36.00
2018-07-13T15:19:28.546Z,35.70
2018-07-13T15:21:59.008Z,35.90
2018-07-13T15:24:26.613Z,37.60
2018-07-13T15:26:54.279Z,34.90
2018-07-13T15:29:32.408Z,36.00
2018-07-13T15:32:00.039Z,38.10
2018-07-13T15:34:27.664Z,39.80
2018-07-13T15:36:55.306Z,37.90
2018-07-13T15:39:22.924Z,39.10
2018-07-13T15:41:50.551Z,40.70
2018-07-13T15:44:18.162Z,43.20
2018-07-13T15:46:45.805Z,44.40
2018-07-13T15:49:13.431Z,43.10
2018-07-13T15:54:08.609Z,42.50
2018-07-13T15:56:36.192Z,41.60
2018-07-13T15:59:03.866Z,40.20
2018-07-13T16:01:31.479Z,41.10
2018-07-13T16:03:59.104Z,41.30
2018-07-13T16:06:26.756Z,39.80
2018-07-13T16:08:54.366Z,38.50
2018-07-13T16:11:21.942Z,39.40
2018-07-13T16:13:49.705Z,36.80
2018-07-13T16:16:17.323Z,37.60
2018-07-13T16:18:45.023Z,38.90
2018-07-13T16:21:12.636Z,40.40
2018-07-13T16:23:40.477Z,39.80
2018-07-13T16:26:08.089Z,41.00
2018-07-13T16:28:35.830Z,42.90
2018-07-13T16:31:03.418Z,40.80
2018-07-13T16:33:31.038Z,40.60
2018-07-13T16:35:58.712Z,42.40
2018-07-13T16:38:26.316Z,40.10
2018-07-13T16:40:53.957Z,41.70
2018-07-13T16:43:21.615Z,42.50
2018-07-13T16:45:49.206Z,42.70
2018-07-13T16:48:16.820Z,41.30
2018-07-13T16:50:44.549Z,42.10
2018-07-13T16:53:12.125Z,42.40
2018-07-13T16:55:39.766Z,42.40
2018-07-13T16:58:07.391Z,43.90
2018-07-13T17:00:35.091Z,41.40
2018-07-13T17:03:02.761Z,41.50
2018-07-13T17:05:30.375Z,43.00
2018-07-13T17:07:58.044Z,44.50
2018-07-13T17:10:25.642Z,42.90
2018-07-13T17:12:53.354Z,42.60
2018-07-13T17:15:20.970Z,45.20
2018-07-13T17:17:48.584Z,45.20
2018-07-13T17:20:16.280Z,45.40
2018-07-13T17:22:43.861Z,44.50
2018-07-13T17:25:11.512Z,45.60
2018-07-13T17:27:39.180Z,43.80
2018-07-13T17:30:08.080Z,45.20
2018-07-13T17:32:35.672Z,44.70
2018-07-13T17:35:03.425Z,45.90
2018-07-13T17:37:31.036Z,47.00
2018-07-13T17:39:58.699Z,46.60
2018-07-13T17:42:26.382Z,47.40
2018-07-13T17:44:54.102Z,46.90
2018-07-13T17:47:21.699Z,48.20
2018-07-13T17:49:49.338Z,48.30
2018-07-13T17:52:16.966Z,49.10
2018-07-13T17:54:44.540Z,49.10
2018-07-13T17:57:12.176Z,48.60
2018-07-13T17:59:39.800Z,47.90
2018-07-13T18:02:07.439Z,49.20
2018-07-13T18:04:35.130Z,48.90
2018-07-13T18:07:02.776Z,48.80
2018-07-13T18:09:30.380Z,49.20
2018-07-13T18:11:58.020Z,48.40
2018-07-13T18:14:25.644Z,49.60
2018-07-13T18:16:53.854Z,51.10
2018-07-13T18:19:26.548Z,50.50
2018-07-13T18:21:54.213Z,52.00
2018-07-13T18:24:21.877Z,52.00
2018-07-13T18:26:49.471Z,51.70
2018-07-13T18:29:17.136Z,52.80
2018-07-13T18:31:44.790Z,52.90
2018-07-13T18:34:12.431Z,52.40
2018-07-13T18:36:40.100Z,53.60
2018-07-13T18:39:07.792Z,52.20
2018-07-13T18:41:35.485Z,53.40
2018-07-13T18:44:03.107Z,53.30
2018-07-13T18:46:30.687Z,53.00
2018-07-13T18:48:58.288Z,54.00
2018-07-13T18:51:25.971Z,53.90
2018-07-13T18:53:53.602Z,54.50
2018-07-13T18:56:21.832Z,54.60
2018-07-13T18:58:50.090Z,55.00
2018-07-13T19:01:17.679Z,55.40
2018-07-13T19:03:45.313Z,56.60
2018-07-13T19:06:12.958Z,56.90
2018-07-13T19:08:40.602Z,57.00
2018-07-13T19:11:08.324Z,57.60
2018-07-13T19:13:35.966Z,57.80
2018-07-13T19:16:03.562Z,58.20
2018-07-13T19:21:08.570Z,58.70
2018-07-13T19:23:36.191Z,59.20
2018-07-13T19:26:03.889Z,59.30
2018-07-13T19:28:31.854Z,59.70
2018-07-13T19:30:59.548Z,59.80
2018-07-13T19:33:27.315Z,60.50
2018-07-13T19:35:55.075Z,60.80
2018-07-13T19:38:22.686Z,60.90
2018-07-13T19:40:50.358Z,60.80
2018-07-13T19:43:19.287Z,60.60
2018-07-13T19:45:46.938Z,60.90
2018-07-13T19:48:14.688Z,61.00
2018-07-13T19:50:42.441Z,60.70
2018-07-13T19:53:10.151Z,60.60
2018-07-13T19:55:37.919Z,61.20
2018-07-13T19:58:05.608Z,61.70
2018-07-13T20:00:33.236Z,61.60
2018-07-13T20:03:01.148Z,62.00
2018-07-13T20:05:28.836Z,62.50
2018-07-13T20:07:56.454Z,62.80
2018-07-13T20:10:24.250Z,63.10
2018-07-13T20:12:52.016Z,63.10
2018-07-13T20:15:19.737Z,63.20
2018-07-13T20:17:47.432Z,62.90
2018-07-13T20:20:15.300Z,62.80
2018-07-13T20:22:42.968Z,62.40
2018-07-13T20:25:10.699Z,62.70
2018-07-13T20:27:38.490Z,64.30
2018-07-13T20:30:06.857Z,65.30
2018-07-13T20:32:34.565Z,65.60
2018-07-13T20:35:02.302Z,66.20
2018-07-13T20:37:29.991Z,66.80
2018-07-13T20:39:57.590Z,67.60
2018-07-13T20:42:25.221Z,67.60
2018-07-13T20:44:52.837Z,67.90
2018-07-13T20:47:20.849Z,68.30
2018-07-13T20:49:48.474Z,68.10
2018-07-13T20:52:17.040Z,68.20
2018-07-13T20:54:44.713Z,68.40
2018-07-13T20:57:12.498Z,68.00
2018-07-13T20:59:40.151Z,68.10
2018-07-13T21:02:07.750Z,68.00
2018-07-13T21:04:35.401Z,68.00
2018-07-13T21:07:03.033Z,68.00
2018-07-13T21:09:30.682Z,68.10
2018-07-13T21:11:58.406Z,68.00
2018-07-13T21:14:25.969Z,67.90
2018-07-13T21:16:53.641Z,67.50
2018-07-13T21:19:27.512Z,67.60
2018-07-13T21:21:55.268Z,67.60
2018-07-13T21:24:22.860Z,67.60
2018-07-13T21:26:50.583Z,67.60
2018-07-13T21:29:18.179Z,67.60
2018-07-13T21:31:45.845Z,67.60
2018-07-13T21:36:41.825Z,67.90
2018-07-13T21:39:09.515Z,68.30
2018-07-13T21:41:37.090Z,68.30
2018-07-13T21:44:04.758Z,68.70
2018-07-13T21:46:32.370Z,68.80
2018-07-13T21:49:06.743Z,68.70
2018-07-13T21:51:38.260Z,68.50
2018-07-13T21:54:07.626Z,68.50
2018-07-13T21:56:35.241Z,68.60
2018-07-13T21:59:02.935Z,68.50
2018-07-13T22:01:30.532Z,68.70
2018-07-13T22:03:58.153Z,68.80
2018-07-13T22:06:25.743Z,68.70
2018-07-13T22:08:53.375Z,68.80
2018-07-13T22:11:21.030Z,68.90
2018-07-13T22:13:48.702Z,69.00
2018-07-13T22:16:16.272Z,69.30
2018-07-13T22:18:43.866Z,69.60
2018-07-13T22:21:11.511Z,69.70
2018-07-13T22:23:39.152Z,69.90
2018-07-13T22:26:06.715Z,69.80
2018-07-13T22:28:34.282Z,70.00
2018-07-13T22:31:01.967Z,69.90
2018-07-13T22:33:36.296Z,70.00
2018-07-13T22:36:03.972Z,69.80
2018-07-13T22:38:31.567Z,69.50
2018-07-13T22:40:59.262Z,69.90
2018-07-13T22:43:26.881Z,70.10
2018-07-13T22:45:54.486Z,70.30
2018-07-13T22:48:22.097Z,70.30
2018-07-13T22:50:49.741Z,70.60
2018-07-13T22:53:17.315Z,70.60
2018-07-13T22:55:44.949Z,70.70
2018-07-13T22:58:12.584Z,70.80
2018-07-13T23:00:40.272Z,70.60
2018-07-13T23:03:07.905Z,70.90
2018-07-13T23:05:35.496Z,71.10
2018-07-13T23:08:03.193Z,70.80
2018-07-13T23:10:30.819Z,70.20
2018-07-13T23:12:58.426Z,70.30
2018-07-13T23:15:26.070Z,70.70
2018-07-13T23:17:53.643Z,71.00
2018-07-13T23:20:22.153Z,71.50
2018-07-13T23:22:49.841Z,71.60
2018-07-13T23:25:25.942Z,71.60
2018-07-13T23:27:53.589Z,71.80
2018-07-13T23:32:48.791Z,72.10
2018-07-13T23:35:16.430Z,72.20
2018-07-13T23:37:44.035Z,72.30
2018-07-13T23:40:11.640Z,72.80
2018-07-13T23:42:39.233Z,72.80
2018-07-13T23:45:06.823Z,72.70
2018-07-13T23:47:34.448Z,72.60
2018-07-13T23:50:02.133Z,72.40
2018-07-13T23:52:29.750Z,72.40
2018-07-13T23:54:57.323Z,72.60
2018-07-13T23:57:24.961Z,72.50
2018-07-13T23:59:52.528Z,72.60
